This demonstration page uses our WeatherBlox Daily Observations layout. Learn more.

Left ArrowRight Arrow

38.88101, -77.10428

Hourly Observations for March 20, 2019

Temp ( °F °C ) Dew Point ( °F °C ) Humidity (%) Winds ( mph kmh ) Pressure ( in mb ) Visibility ( mi km ) Precip ( " mm )
12:52 am 00:52 Clear 41 5 20 -6.7 43 43 SW 3 6 30.41 1030 10 16.0934 0 0
1:52 am 01:52 Clear 41 5 26 -3.3 55 55 SSE 8 13 30.41 1030 10 16.0934 0 0
2:52 am 02:52 Clear 40 4.4 28 -2.2 63 63 SSW 5 7 30.4 1030 10 16.0934 0 0
3:52 am 03:52 Mostly Cloudy 40 4.4 26 -3.3 58 58 Calm 30.4 1029 10 16.0934 0 0
4:52 am 04:52 Mostly Cloudy 39 3.9 27 -2.8 62 62 Calm 30.39 1029 10 16.0934 0 0
5:52 am 05:52 Cloudy 39 3.9 27 -2.8 62 62 Calm 30.4 1029 10 16.0934 0 0
6:52 am 06:52 Mostly Cloudy 39 3.9 29 -1.7 67 67 Calm 30.4 1030 10 16.0934 0 0
7:52 am 07:52 Mostly Cloudy 38 3.3 29 -1.7 70 70 Calm 30.4 1030 10 16.0934 0 0
8:52 am 08:52 Mostly Cloudy 42 5.6 32 0 68 68 E 3 6 30.4 1030 10 16.0934 0 0
9:52 am 09:52 Cloudy 44 6.7 30 -1.1 58 58 Calm 30.41 1030 10 16.0934 0 0
11:52 am 11:52 Cloudy 50 10 24 -4.4 36 36 SSW 8 13 30.39 1029 10 16.0934 0 0
1:52 pm 13:52 Cloudy 54 12.2 23 -5 30 30 VRB 7 11 30.33 1027 10 16.0934 0 0
2:52 pm 14:52 Cloudy 55 12.8 20 -6.7 25 25 S 6 9 30.28 1026 10 16.0934 0 0
3:52 pm 15:52 Mostly Cloudy 56 13.3 23 -5 28 28 SE 5 7 30.26 1025 10 16.0934 0 0
4:52 pm 16:52 Cloudy 55 12.8 22 -5.6 28 28 SE 10 17 30.24 1024 10 16.0934 0 0
5:52 pm 17:52 Cloudy 54 12.2 24 -4.4 31 31 ESE 12 19 30.24 1024 10 16.0934 0 0
6:52 pm 18:52 Cloudy 52 11.1 25 -3.9 35 35 SE 9 15 30.24 1024 10 16.0934 0 0
7:52 pm 19:52 Cloudy 51 10.6 27 -2.8 39 39 ESE 7 11 30.23 1024 10 16.0934 0 0
8:52 pm 20:52 Cloudy 51 10.6 28 -2.2 41 41 ESE 7 11 30.23 1024 10 16.0934 0 0
9:52 pm 21:52 Cloudy 50 10 30 -1.1 46 46 ESE 9 15 30.23 1024 10 16.0934 0 0
10:52 pm 22:52 Cloudy with Light Rain 49 9.4 33 0.6 55 55 ESE 8 13 30.23 1024 10 16.0934 0 0.0254
11:52 pm 23:52 Cloudy 48 8.9 37 2.8 66 66 E 9 15 30.21 1023 10 16.0934 0 0.0254

Powered by AerisWeather